Terminal Aerodrome Forecast
Issued by NWS

Home | Current Version | Previous Version | Text Only | Print | Product List | Glossary On
Versions: 1 2 3 4 5 6 7 8 9 10 11 12 13 14 15 16 17 18 19 20 21 22 23 24 25
000
FTUS42 KILM 170521
TAFCRE
TAF
KCRE 170521Z 1706/1806 03005KT P6SM SCT015 BKN090
     FM170800 02003KT 4SM BR OVC004
     FM171600 20006KT P6SM SCT007 BKN020
     FM171800 21009KT P6SM SCT250
     FM180200 23010KT P6SM SKC=

USA.gov is the U.S. government's official web portal to all federal, state and local government web resources and services.